Time;durP1;ratioP1;P1;durP2;ratioP2;P2;SDS_P1;SDS_P2;PMS_P1;PMS_P2;Temp;Humidity;BMP_temperature;BMP_pressure;BME280_temperature;BME280_humidity;BME280_pressure;Samples;Min_cycle;Max_cycle;Signal;HPM_P1;HPM_P2
2022/05/27 00:01:16;;;;;;;3.92;1.88;;;;;;;18.83;65.13;95153.00;5026081;28;20221;-81
2022/05/27 00:03:43;;;;;;;4.85;2.63;;;;;;;18.84;65.01;95157.31;5024508;28;20216;-81
2022/05/27 00:06:12;;;;;;;2.70;2.33;;;;;;;18.96;64.75;95150.84;5033310;28;20239;-77
2022/05/27 00:08:39;;;;;;;4.60;2.38;;;;;;;18.83;65.18;95144.75;5032259;28;20211;-82
2022/05/27 00:11:06;;;;;;;4.45;2.25;;;;;;;18.77;65.33;95140.72;5020263;28;20200;-83
2022/05/27 00:13:33;;;;;;;4.55;2.00;;;;;;;18.73;65.54;95142.59;5022045;28;20229;-82
2022/05/27 00:16:00;;;;;;;2.38;1.75;;;;;;;18.70;65.45;95146.09;5027131;28;20208;-80
2022/05/27 00:18:27;;;;;;;5.43;2.28;;;;;;;18.70;65.06;95146.09;5013919;28;20581;-82
2022/05/27 00:20:54;;;;;;;2.42;2.00;;;;;;;18.68;65.32;95143.72;5026982;28;20205;-79
2022/05/27 00:23:22;;;;;;;7.00;2.35;;;;;;;18.66;65.39;95150.72;5025561;28;20322;-80
2022/05/27 00:25:49;;;;;;;4.63;1.92;;;;;;;18.82;64.33;95143.16;5027322;28;20239;-82
2022/05/27 00:28:16;;;;;;;4.97;1.92;;;;;;;18.76;64.58;95150.09;5025685;28;20644;-81
2022/05/27 00:30:44;;;;;;;4.28;2.05;;;;;;;18.74;64.59;95141.44;5020084;28;20278;-82
2022/05/27 00:33:11;;;;;;;2.88;1.88;;;;;;;18.74;64.57;95141.44;5019472;28;20808;-79
2022/05/27 00:35:39;;;;;;;3.53;1.95;;;;;;;18.71;64.47;95136.72;5026654;28;20228;-82
2022/05/27 00:38:06;;;;;;;3.67;2.10;;;;;;;18.74;63.92;95135.94;5027103;28;20660;-83
2022/05/27 00:40:41;;;;;;;5.60;1.90;;;;;;;18.73;64.05;95137.09;5033295;28;20212;-83
2022/05/27 00:43:10;;;;;;;3.97;1.95;;;;;;;18.69;64.10;95130.78;5021906;28;20232;-82
2022/05/27 00:45:39;;;;;;;3.20;2.00;;;;;;;18.62;64.53;95138.88;5043014;28;20230;-82
2022/05/27 00:48:12;;;;;;;4.95;2.17;;;;;;;18.58;64.54;95135.28;5029676;28;20558;-83
2022/05/27 00:50:42;;;;;;;3.67;2.50;;;;;;;18.56;64.44;95140.34;5013136;28;20280;-82
2022/05/27 00:53:14;;;;;;;3.90;2.35;;;;;;;18.64;63.96;95128.34;5026264;28;20694;-82
2022/05/27 00:55:48;;;;;;;5.13;2.65;;;;;;;18.66;63.93;95137.00;5024472;28;20274;-80
2022/05/27 00:58:21;;;;;;;7.43;2.20;;;;;;;18.67;63.90;95127.63;5032258;28;20601;-81
2022/05/27 01:00:48;;;;;;;2.90;2.08;;;;;;;18.73;63.40;95134.38;5018357;28;20193;-82
2022/05/27 01:03:18;;;;;;;5.15;2.20;;;;;;;18.67;63.56;95131.16;5021683;28;20304;-81
2022/05/27 01:05:46;;;;;;;3.85;2.60;;;;;;;18.60;63.52;95135.72;5019277;28;20225;-83
2022/05/27 01:08:17;;;;;;;5.10;1.80;;;;;;;18.68;63.08;95131.94;5032025;28;20233;-82
2022/05/27 01:10:57;;;;;;;6.10;2.40;;;;;;;18.72;62.99;95127.31;5019330;28;20192;-82
2022/05/27 01:13:42;;;;;;;3.92;2.00;;;;;;;18.74;62.69;95131.25;5019783;28;20220;-82
2022/05/27 01:16:18;;;;;;;2.67;1.70;;;;;;;18.75;62.42;95123.81;5019766;28;20228;-80
2022/05/27 01:22:15;;;;;;;3.42;2.20;;;;;;;18.74;62.36;95119.47;5018756;28;20262;-81
2022/05/27 01:25:15;;;;;;;5.57;2.28;;;;;;;18.66;62.82;95117.78;5022967;28;20729;-84
2022/05/27 01:28:20;;;;;;;3.22;2.08;;;;;;;18.57;63.16;95114.47;5006444;28;20200;-83
2022/05/27 01:30:52;;;;;;;4.03;2.40;;;;;;;18.46;63.43;95114.28;5017142;28;20246;-83
2022/05/27 01:33:32;;;;;;;4.88;1.90;;;;;;;18.35;63.68;95111.34;5029765;28;20219;-81
2022/05/27 01:36:06;;;;;;;3.47;2.00;;;;;;;18.33;63.73;95110.91;5022469;28;20228;-84
2022/05/27 01:38:40;;;;;;;2.97;2.28;;;;;;;18.25;64.49;95120.19;5018598;28;20204;-82
2022/05/27 01:41:11;;;;;;;2.97;2.10;;;;;;;18.16;65.28;95105.94;5018697;28;20201;-83
2022/05/27 01:43:42;;;;;;;3.90;2.40;;;;;;;18.24;65.06;95118.59;5025402;28;20277;-84
2022/05/27 01:46:15;;;;;;;4.72;2.42;;;;;;;17.98;66.14;95115.75;5036330;28;20275;-87
2022/05/27 01:48:51;;;;;;;5.55;2.42;;;;;;;17.83;66.79;95108.41;5022307;28;20235;-83
2022/05/27 01:51:25;;;;;;;3.30;2.38;;;;;;;17.73;67.61;95120.75;5025219;28;20193;-83
2022/05/27 01:53:57;;;;;;;4.45;2.53;;;;;;;17.56;68.17;95127.41;5023647;28;20251;-83
2022/05/27 01:56:29;;;;;;;5.57;2.45;;;;;;;17.51;68.54;95111.25;5012330;28;20197;-83
2022/05/27 01:59:00;;;;;;;3.55;2.40;;;;;;;17.51;68.78;95119.47;5024390;28;20952;-82
2022/05/27 02:01:34;;;;;;;3.55;2.50;;;;;;;17.44;69.02;95116.59;5030620;28;20196;-83
2022/05/27 02:04:06;;;;;;;5.43;2.83;;;;;;;17.44;69.10;95119.34;5018218;28;20240;-83
2022/05/27 02:06:36;;;;;;;7.80;3.03;;;;;;;17.52;69.44;95121.06;5021828;28;20197;-82
2022/05/27 02:09:08;;;;;;;5.05;2.80;;;;;;;17.41;70.26;95125.53;5016268;28;20320;-87
2022/05/27 02:11:35;;;;;;;5.15;3.08;;;;;;;17.26;70.98;95129.09;5020639;28;20199;-85
2022/05/27 02:14:06;;;;;;;6.78;3.45;;;;;;;17.28;70.78;95122.13;5024751;28;20228;-83
2022/05/27 02:16:38;;;;;;;7.20;3.65;;;;;;;17.12;71.22;95123.31;5023558;28;20231;-82
2022/05/27 02:19:11;;;;;;;14.98;6.45;;;;;;;17.05;71.87;95116.53;5017924;28;20204;-82
2022/05/27 02:21:44;;;;;;;11.82;5.85;;;;;;;17.05;72.38;95113.00;5018429;28;20228;-82
2022/05/27 02:24:17;;;;;;;14.35;7.00;;;;;;;17.05;72.44;95113.81;5023432;28;20684;-83
2022/05/27 02:26:49;;;;;;;13.00;6.20;;;;;;;16.89;72.92;95110.31;5024503;28;20197;-83
2022/05/27 02:29:21;;;;;;;14.23;6.65;;;;;;;16.96;72.68;95121.41;5020489;28;20286;-83
2022/05/27 02:31:54;;;;;;;12.65;6.43;;;;;;;17.02;72.70;95132.88;5019031;28;20243;-83
2022/05/27 02:37:15;;;;;;;11.55;5.32;;;;;;;16.86;73.64;95127.41;5034325;28;20204;-83
2022/05/27 02:39:43;;;;;;;7.90;4.63;;;;;;;16.79;73.69;95132.75;5034863;28;20574;-82
2022/05/27 02:42:16;;;;;;;9.25;4.55;;;;;;;16.78;73.49;95135.81;5034617;28;20739;-82
2022/05/27 02:44:51;;;;;;;9.15;4.25;;;;;;;16.81;73.65;95130.41;5048360;28;20219;-82
2022/05/27 02:47:27;;;;;;;7.13;4.28;;;;;;;16.79;73.32;95131.94;5034689;28;20699;-82
2022/05/27 02:50:02;;;;;;;7.53;4.00;;;;;;;16.71;73.38;95125.50;5021464;28;20192;-82
2022/05/27 02:52:41;;;;;;;5.90;4.00;;;;;;;16.70;74.17;95123.91;5034983;28;20188;-83
2022/05/27 02:55:15;;;;;;;6.88;3.85;;;;;;;16.89;73.92;95126.72;5023141;28;20694;-83
2022/05/27 02:57:45;;;;;;;5.80;3.72;;;;;;;16.94;73.45;95117.44;5034934;28;20235;-82
2022/05/27 03:00:16;;;;;;;6.72;4.35;;;;;;;16.98;73.39;95130.06;5023919;28;20213;-82
2022/05/27 03:02:44;;;;;;;4.65;3.90;;;;;;;17.04;73.26;95125.09;5027333;28;20224;-82
2022/05/27 03:05:13;;;;;;;6.55;3.97;;;;;;;17.21;72.67;95130.19;5025496;28;20235;-83
2022/05/27 03:07:57;;;;;;;6.95;4.00;;;;;;;17.38;72.28;95126.25;5029349;28;20212;-83
2022/05/27 03:10:32;;;;;;;10.25;4.28;;;;;;;17.51;71.75;95130.44;5014608;28;20216;-83
2022/05/27 03:13:18;;;;;;;6.90;4.35;;;;;;;17.75;71.15;95130.22;5026161;28;20196;-82
2022/05/27 03:15:58;;;;;;;11.85;3.60;;;;;;;17.98;70.26;95124.78;5027811;28;20199;-83
2022/05/27 03:18:37;;;;;;;7.45;4.90;;;;;;;18.17;69.64;95129.47;5014788;28;20636;-83
2022/05/27 03:21:13;;;;;;;10.40;4.28;;;;;;;18.29;68.75;95131.25;5022371;28;20192;-82
2022/05/27 03:23:50;;;;;;;6.30;2.95;;;;;;;18.58;68.05;95127.88;5021644;28;20203;-82
2022/05/27 03:26:28;;;;;;;8.60;3.38;;;;;;;18.98;67.20;95130.09;5023185;28;20312;-82
2022/05/27 03:29:07;;;;;;;5.32;3.72;;;;;;;19.36;66.31;95122.78;5028074;28;20280;-82
2022/05/27 03:31:38;;;;;;;6.63;3.95;;;;;;;19.99;64.67;95122.03;5028130;28;20204;-83
2022/05/27 03:34:15;;;;;;;7.60;4.47;;;;;;;20.45;62.84;95112.34;5033888;28;20251;-82
2022/05/27 03:36:51;;;;;;;8.75;4.82;;;;;;;20.65;62.10;95120.38;5033717;28;20756;-83
2022/05/27 03:39:23;;;;;;;6.63;4.60;;;;;;;21.27;60.37;95111.09;5033842;28;20207;-85
2022/05/27 03:41:54;;;;;;;7.75;5.28;;;;;;;22.20;57.39;95109.56;5028278;28;20232;-86
2022/05/27 03:44:26;;;;;;;6.80;3.83;;;;;;;22.65;55.95;95108.06;5038886;28;20196;-83
2022/05/27 03:46:55;;;;;;;4.85;3.22;;;;;;;22.76;54.84;95096.25;5020012;28;20649;-78
2022/05/27 03:49:23;;;;;;;6.35;4.03;;;;;;;23.35;54.11;95112.03;5034307;28;20196;-84
2022/05/27 03:51:57;;;;;;;5.88;3.97;;;;;;;23.51;53.38;95108.84;5033583;28;20211;-81
2022/05/27 03:54:25;;;;;;;5.93;4.55;;;;;;;23.55;53.26;95103.31;5019009;28;20228;-80
2022/05/27 03:56:52;;;;;;;8.60;4.20;;;;;;;23.63;52.46;95108.44;5013456;28;20228;-81
2022/05/27 03:59:20;;;;;;;11.23;4.70;;;;;;;23.74;51.94;95105.63;5026900;28;20200;-82
2022/05/27 04:01:49;;;;;;;7.07;4.25;;;;;;;23.83;52.45;95105.19;5022188;28;20742;-79
2022/05/27 04:04:20;;;;;;;8.25;4.07;;;;;;;24.26;51.43;95097.53;5019580;28;20221;-79
2022/05/27 04:06:49;;;;;;;6.30;4.30;;;;;;;24.73;50.13;95099.63;5032900;28;20622;-79
2022/05/27 04:09:18;;;;;;;6.13;4.30;;;;;;;25.20;49.32;95100.03;5031408;28;20205;-79
2022/05/27 04:11:48;;;;;;;11.50;4.47;;;;;;;25.68;47.84;95090.88;5019796;28;20201;-82
2022/05/27 04:14:15;;;;;;;10.13;4.25;;;;;;;25.71;47.99;95109.47;5031029;28;20236;-82
2022/05/27 04:16:42;;;;;;;7.55;4.32;;;;;;;25.36;48.85;95108.59;5033308;28;20282;-79
2022/05/27 04:19:10;;;;;;;9.60;4.95;;;;;;;24.65;50.46;95102.81;5019524;28;20224;-81
2022/05/27 04:21:37;;;;;;;7.80;5.03;;;;;;;22.57;56.00;95112.00;5022393;28;20204;-80
2022/05/27 04:24:07;;;;;;;6.65;4.65;;;;;;;21.98;58.29;95119.72;5031068;28;20209;-80
2022/05/27 04:26:34;;;;;;;8.65;5.80;;;;;;;21.18;60.17;95118.84;5020278;28;20217;-80
2022/05/27 04:29:01;;;;;;;11.20;5.50;;;;;;;22.05;58.81;95118.19;5026345;28;20201;-79
2022/05/27 04:31:28;;;;;;;6.22;5.18;;;;;;;22.95;55.92;95110.50;5025099;28;20231;-82
2022/05/27 04:33:56;;;;;;;6.90;5.35;;;;;;;23.60;53.72;95108.44;5018655;28;20200;-83
2022/05/27 04:36:22;;;;;;;6.78;5.20;;;;;;;25.23;50.27;95093.69;5019403;28;20735;-83
2022/05/27 04:38:49;;;;;;;9.32;5.45;;;;;;;25.08;49.04;95101.34;5025278;28;20236;-80
2022/05/27 04:41:18;;;;;;;6.68;4.55;;;;;;;25.52;48.08;95104.50;5026692;28;20200;-81
2022/05/27 04:43:44;;;;;;;8.05;4.90;;;;;;;26.54;45.64;95096.94;5025548;28;20197;-81
2022/05/27 04:46:12;;;;;;;6.88;5.15;;;;;;;27.29;44.05;95090.22;5026206;28;20236;-82
2022/05/27 04:48:41;;;;;;;7.57;4.65;;;;;;;28.26;41.58;95091.56;5020681;28;20204;-84
2022/05/27 04:51:08;;;;;;;5.65;4.40;;;;;;;27.99;42.24;95101.28;5019520;28;20296;-83
2022/05/27 04:53:36;;;;;;;7.65;4.57;;;;;;;27.92;42.53;95094.63;5024537;28;20829;-86
2022/05/27 04:56:03;;;;;;;5.68;4.60;;;;;;;29.06;40.32;95086.59;5025764;28;20232;-86
2022/05/27 04:58:31;;;;;;;9.10;4.80;;;;;;;29.61;39.48;95093.97;5021774;28;20224;-86
2022/05/27 05:00:59;;;;;;;7.85;4.68;;;;;;;30.07;38.59;95099.56;5030070;28;20232;-86
2022/05/27 05:03:26;;;;;;;7.18;4.95;;;;;;;28.79;40.48;95089.63;5022354;28;20211;-86
2022/05/27 05:05:53;;;;;;;8.02;4.97;;;;;;;29.45;39.55;95094.00;5018870;28;20203;-88
2022/05/27 05:08:32;;;;;;;7.93;4.60;;;;;;;30.18;38.34;95086.84;5022832;28;20204;-86
2022/05/27 05:11:01;;;;;;;11.20;4.97;;;;;;;30.31;37.55;95084.84;5025865;28;20256;-88
2022/05/27 05:13:29;;;;;;;6.15;4.43;;;;;;;30.63;37.19;95089.50;5024124;28;20655;-87
2022/05/27 05:15:58;;;;;;;5.03;4.38;;;;;;;31.36;36.45;95089.59;5031690;28;20703;-86
2022/05/27 05:18:25;;;;;;;5.85;4.43;;;;;;;31.68;35.74;95083.72;5019885;28;20574;-81
2022/05/27 05:20:52;;;;;;;5.32;4.40;;;;;;;31.19;36.77;95085.34;5026130;28;20204;-88
2022/05/27 05:23:19;;;;;;;9.20;3.85;;;;;;;30.54;35.66;95085.81;5025039;28;20204;-81
2022/05/27 05:25:46;;;;;;;5.72;3.63;;;;;;;29.04;37.82;95091.03;5026083;28;20188;-84
2022/05/27 05:28:13;;;;;;;4.47;3.20;;;;;;;28.94;38.37;95092.88;5024787;28;20228;-82
2022/05/27 05:30:40;;;;;;;7.28;3.50;;;;;;;30.58;36.22;95092.09;5031827;28;20228;-80
2022/05/27 05:33:08;;;;;;;5.88;4.07;;;;;;;29.48;38.15;95095.91;5031787;28;20219;-78
2022/05/27 05:35:35;;;;;;;5.90;3.75;;;;;;;28.62;40.35;95096.34;5017972;28;20239;-80
2022/05/27 05:38:03;;;;;;;8.07;3.67;;;;;;;31.12;35.67;95091.22;5031179;28;20239;-89
2022/05/27 05:40:32;;;;;;;6.00;3.20;;;;;;;32.34;34.42;95078.94;5031767;28;20655;-90
2022/05/27 05:43:01;;;;;;;6.82;3.45;;;;;;;29.94;35.12;95094.66;5019804;28;20212;-88
2022/05/27 05:45:28;;;;;;;6.20;3.00;;;;;;;30.58;34.63;95094.88;5051826;28;20282;-87
2022/05/27 05:47:55;;;;;;;4.50;3.03;;;;;;;29.03;36.78;95092.25;5036914;28;20200;-80
2022/05/27 05:50:24;;;;;;;4.18;2.72;;;;;;;28.07;38.40;95083.97;5031875;28;20214;-81
2022/05/27 05:52:51;;;;;;;3.97;2.33;;;;;;;27.31;39.44;95094.16;5018717;28;20233;-87
2022/05/27 05:55:19;;;;;;;4.30;2.80;;;;;;;28.11;39.29;95093.06;5022520;28;20773;-80
2022/05/27 05:57:48;;;;;;;4.22;2.55;;;;;;;28.87;38.36;95084.66;5024816;28;20235;-78
2022/05/27 06:00:19;;;;;;;7.20;2.80;;;;;;;27.76;39.53;95091.75;5021300;28;20917;-82
2022/05/27 06:02:46;;;;;;;4.85;2.70;;;;;;;28.87;37.89;95096.59;5027323;28;20205;-83
2022/05/27 06:05:13;;;;;;;3.90;2.95;;;;;;;28.25;39.10;95101.16;5022116;28;20211;-81
2022/05/27 06:07:42;;;;;;;6.35;3.38;;;;;;;29.21;37.48;95092.59;5022660;28;20602;-87
2022/05/27 06:10:11;;;;;;;5.28;2.90;;;;;;;29.63;37.11;95085.94;5030677;28;20220;-88
2022/05/27 06:12:39;;;;;;;4.68;2.78;;;;;;;28.49;37.69;95101.81;5029661;28;20306;-80
2022/05/27 06:15:10;;;;;;;12.50;3.85;;;;;;;28.75;38.32;95094.47;5031868;28;20247;-86
2022/05/27 06:17:37;;;;;;;3.97;2.72;;;;;;;27.46;40.38;95095.47;5025684;28;20255;-80
2022/05/27 06:20:05;;;;;;;6.40;3.05;;;;;;;30.31;35.87;95087.66;5023258;28;20219;-87
2022/05/27 06:22:33;;;;;;;5.20;2.85;;;;;;;30.58;34.48;95089.28;5018008;28;20227;-82
2022/05/27 06:25:02;;;;;;;6.18;2.83;;;;;;;28.69;38.02;95093.41;5019376;28;20204;-77
2022/05/27 06:27:29;;;;;;;5.70;2.83;;;;;;;26.33;42.23;95108.34;5030915;28;20204;-85
2022/05/27 06:35:34;;;;;;;4.97;2.95;;;;;;;28.42;38.62;95095.63;4988431;28;20239;-86
2022/05/27 06:38:01;;;;;;;5.95;2.70;;;;;;;28.34;39.01;95091.41;5025295;28;20407;-87
2022/05/27 06:40:29;;;;;;;5.80;2.72;;;;;;;28.42;39.45;95092.84;5031158;28;20200;-84
2022/05/27 06:42:56;;;;;;;3.78;2.72;;;;;;;29.08;36.99;95088.94;5031856;28;20211;-83
2022/05/27 06:45:24;;;;;;;6.43;2.83;;;;;;;28.88;37.36;95080.63;5042404;28;20204;-86
2022/05/27 06:47:51;;;;;;;4.72;2.80;;;;;;;28.05;38.21;95080.03;5030993;28;20207;-80
2022/05/27 06:50:18;;;;;;;4.50;2.75;;;;;;;28.80;38.65;95080.03;5031150;28;20576;-87
2022/05/27 06:52:45;;;;;;;11.15;2.80;;;;;;;31.11;34.96;95073.63;5031119;28;20232;-88
2022/05/27 06:55:15;;;;;;;4.28;2.90;;;;;;;31.89;32.81;95064.56;5031097;28;20582;-87
2022/05/27 06:57:43;;;;;;;5.43;2.72;;;;;;;33.63;30.50;95052.09;5017780;28;20329;-86
2022/05/27 07:00:12;;;;;;;5.18;3.03;;;;;;;31.48;32.60;95069.16;5021873;28;20279;-87
2022/05/27 07:02:39;;;;;;;4.47;3.05;;;;;;;30.22;34.56;95076.31;5024506;28;20220;-85
2022/05/27 07:05:07;;;;;;;4.22;2.60;;;;;;;31.37;32.90;95057.56;5020951;28;20204;-85
2022/05/27 07:07:34;;;;;;;4.63;2.45;;;;;;;32.36;32.02;95061.66;5017385;28;20197;-84
2022/05/27 07:10:01;;;;;;;5.63;2.47;;;;;;;31.96;32.12;95058.72;5020327;28;20205;-85
2022/05/27 07:12:27;;;;;;;3.67;2.75;;;;;;;32.01;32.37;95063.72;5028878;28;20203;-84
2022/05/27 07:14:56;;;;;;;5.22;3.15;;;;;;;29.54;36.04;95060.63;5030240;28;20235;-86
2022/05/27 07:17:23;;;;;;;5.22;3.40;;;;;;;29.28;36.42;95064.50;5030564;28;20216;-87
2022/05/27 07:19:50;;;;;;;3.45;2.50;;;;;;;31.09;34.31;95051.69;5032430;28;20193;-88
2022/05/27 07:22:16;;;;;;;6.93;2.92;;;;;;;30.93;33.52;95051.78;5028922;28;20231;-80
2022/05/27 07:24:43;;;;;;;4.85;3.00;;;;;;;30.53;34.46;95054.22;5031136;28;20215;-87
2022/05/27 07:27:10;;;;;;;3.88;2.88;;;;;;;31.88;32.31;95040.56;5028949;28;20224;-82
2022/05/27 07:29:37;;;;;;;2.85;2.55;;;;;;;31.57;33.12;95037.69;5028918;28;20227;-87
2022/05/27 07:32:06;;;;;;;4.35;3.00;;;;;;;31.48;33.63;95041.16;5028221;28;20204;-86
2022/05/27 07:34:33;;;;;;;9.23;3.42;;;;;;;31.26;33.59;95026.34;5027533;28;20212;-88
2022/05/27 07:37:00;;;;;;;4.28;2.85;;;;;;;30.08;35.07;95031.22;5029725;28;20224;-86
2022/05/27 07:39:27;;;;;;;4.75;2.85;;;;;;;30.03;35.17;95040.97;5033687;28;20200;-87
2022/05/27 07:41:54;;;;;;;5.03;3.10;;;;;;;30.29;34.63;95028.59;5033119;28;20204;-85
2022/05/27 07:44:21;;;;;;;5.50;3.10;;;;;;;31.39;32.60;95021.47;5028654;28;20197;-90
2022/05/27 07:46:52;;;;;;;6.15;3.00;;;;;;;30.90;34.12;95030.28;5022638;28;20267;-84
2022/05/27 07:49:21;;;;;;;6.05;2.90;;;;;;;30.95;31.88;95015.72;5037857;28;20193;-86
2022/05/27 07:51:48;;;;;;;5.85;2.90;;;;;;;30.24;33.68;95020.75;5023312;28;20200;-86
2022/05/27 07:54:15;;;;;;;7.18;3.08;;;;;;;30.33;33.75;95020.88;5034900;28;20703;-87
2022/05/27 07:56:42;;;;;;;3.58;2.75;;;;;;;31.19;33.65;95012.56;5034542;28;20240;-85
2022/05/27 07:59:09;;;;;;;4.82;3.05;;;;;;;31.48;31.23;95007.53;5020793;28;20232;-88
2022/05/27 08:01:40;;;;;;;4.85;2.80;;;;;;;30.95;32.30;95009.34;5026384;28;20205;-84
2022/05/27 08:04:07;;;;;;;3.45;2.40;;;;;;;31.62;31.71;95009.84;5028062;28;20200;-89
2022/05/27 08:06:37;;;;;;;4.65;2.80;;;;;;;30.78;33.40;95017.09;5032113;28;20570;-85
2022/05/27 08:09:04;;;;;;;4.93;2.45;;;;;;;31.29;33.53;95012.22;5030455;28;20205;-87
2022/05/27 08:11:31;;;;;;;5.63;2.85;;;;;;;30.46;33.59;95006.91;5013707;28;20240;-87
2022/05/27 08:14:00;;;;;;;5.13;2.70;;;;;;;29.72;35.26;95003.50;5014618;28;20537;-80
2022/05/27 08:16:27;;;;;;;7.07;2.80;;;;;;;30.71;34.39;95008.94;5024661;28;20322;-87
2022/05/27 08:18:54;;;;;;;4.43;2.80;;;;;;;31.22;32.60;95001.25;5026826;28;20579;-84
2022/05/27 08:21:22;;;;;;;5.72;2.72;;;;;;;32.09;31.51;95000.56;5022909;28;20224;-88
2022/05/27 08:23:50;;;;;;;5.18;2.92;;;;;;;32.53;30.71;94994.88;5033464;28;20219;-86
2022/05/27 08:26:17;;;;;;;8.13;3.50;;;;;;;32.77;30.17;94987.50;5035065;28;20231;-88
2022/05/27 08:28:44;;;;;;;4.32;2.78;;;;;;;31.26;31.78;94989.94;5021017;28;20208;-85
2022/05/27 08:31:13;;;;;;;9.82;3.08;;;;;;;30.94;32.81;94996.59;5023334;28;20207;-87
2022/05/27 08:39:14;;;;;;;6.47;3.30;;;;;;;30.90;33.64;94979.91;5033229;28;20203;-87
2022/05/27 08:42:05;;;;;;;7.18;2.83;;;;;;;31.70;32.72;94974.78;5028956;28;20199;-86
2022/05/27 08:44:48;;;;;;;5.40;3.10;;;;;;;30.87;35.31;94978.03;5039479;28;20199;-84
2022/05/27 08:47:25;;;;;;;4.20;3.30;;;;;;;30.49;33.83;94982.84;5032809;28;20630;-86
2022/05/27 08:49:58;;;;;;;6.53;3.33;;;;;;;30.59;34.21;94976.16;5019015;28;20270;-86
2022/05/27 08:52:33;;;;;;;6.05;3.53;;;;;;;31.37;34.06;94973.53;5020467;28;20225;-85
2022/05/27 08:55:06;;;;;;;5.18;3.10;;;;;;;30.38;35.07;94966.41;5032887;28;20686;-84
2022/05/27 09:00:25;;;;;;;4.82;3.05;;;;;;;30.99;35.41;94959.66;5032619;28;20196;-87
2022/05/27 09:02:59;;;;;;;8.63;3.35;;;;;;;31.41;35.01;94957.41;5019315;28;20553;-85
2022/05/27 09:05:32;;;;;;;6.75;3.33;;;;;;;30.98;34.67;94964.47;5020156;28;20319;-81
2022/05/27 09:08:01;;;;;;;5.25;3.45;;;;;;;29.45;36.52;94967.56;5019419;28;20201;-80
2022/05/27 09:10:41;;;;;;;6.05;3.63;;;;;;;29.51;36.75;94966.59;5032746;28;20208;-84
2022/05/27 09:13:19;;;;;;;7.82;3.13;;;;;;;30.15;35.75;94961.16;5031836;28;20192;-86
2022/05/27 09:15:53;;;;;;;4.25;3.13;;;;;;;30.28;37.45;94951.53;5014840;28;20235;-87
2022/05/27 09:18:29;;;;;;;8.20;3.67;;;;;;;30.07;35.75;94952.19;5024413;28;20671;-83
2022/05/27 09:21:09;;;;;;;8.63;3.83;;;;;;;30.57;35.94;94945.06;5031768;28;20555;-85
2022/05/27 09:24:17;;;;;;;6.65;3.40;;;;;;;30.57;35.62;94945.06;5031839;28;20212;-84
2022/05/27 09:26:57;;;;;;;5.07;3.45;;;;;;;30.83;34.29;94940.22;4977227;28;20221;-83
2022/05/27 09:29:38;;;;;;;4.85;3.55;;;;;;;30.63;35.48;94937.66;4992291;28;20610;-86
2022/05/27 09:32:10;;;;;;;5.68;3.75;;;;;;;29.54;36.89;94946.16;5031871;28;20220;-80
2022/05/27 09:34:39;;;;;;;9.93;3.67;;;;;;;28.60;38.34;94948.22;5020351;28;20205;-80
2022/05/27 09:37:09;;;;;;;7.68;3.80;;;;;;;29.28;37.86;94936.88;5030730;28;20319;-86
2022/05/27 09:39:36;;;;;;;7.65;3.85;;;;;;;29.37;36.94;94935.47;5031684;28;20204;-85
2022/05/27 09:42:15;;;;;;;6.95;3.75;;;;;;;29.47;37.87;94929.59;5031946;28;20200;-86
2022/05/27 09:44:48;;;;;;;8.85;3.63;;;;;;;29.64;35.99;94919.16;5044187;28;20601;-86
2022/05/27 09:47:17;;;;;;;6.13;3.40;;;;;;;30.25;35.82;94918.09;5031190;28;20248;-80
2022/05/27 09:49:45;;;;;;;8.82;3.33;;;;;;;29.91;35.66;94915.94;5015123;28;20267;-86
2022/05/27 09:52:12;;;;;;;8.23;3.55;;;;;;;29.73;36.40;94910.13;5022422;28;20227;-87
2022/05/27 09:54:47;;;;;;;9.77;3.67;;;;;;;29.62;36.20;94908.44;5014367;28;20229;-85
2022/05/27 09:57:25;;;;;;;7.68;3.55;;;;;;;29.87;35.66;94915.28;5011989;28;20224;-77
2022/05/27 09:59:56;;;;;;;4.88;3.38;;;;;;;28.97;37.32;94910.66;5018794;28;20212;-81
2022/05/27 10:02:29;;;;;;;7.03;3.50;;;;;;;28.72;37.36;94905.69;5030566;28;20215;-81
2022/05/27 10:04:59;;;;;;;6.35;3.38;;;;;;;28.65;39.34;94895.50;5020111;28;20224;-85
2022/05/27 10:07:33;;;;;;;4.40;3.50;;;;;;;29.48;38.47;94894.88;5018306;28;20262;-83
2022/05/27 10:10:19;;;;;;;4.90;3.13;;;;;;;29.41;36.75;94874.75;5021580;28;20221;-82
2022/05/27 10:12:48;;;;;;;5.28;3.40;;;;;;;29.49;37.54;94892.88;5030884;28;20208;-81
2022/05/27 10:15:28;;;;;;;7.07;3.30;;;;;;;29.21;37.37;94886.06;5031096;28;20208;-84
2022/05/27 10:17:55;;;;;;;8.13;3.97;;;;;;;29.45;37.01;94884.59;5020228;28;20228;-81
2022/05/27 10:20:31;;;;;;;5.20;3.55;;;;;;;29.48;36.83;94880.94;5028895;28;20216;-83
2022/05/27 10:23:04;;;;;;;4.32;2.90;;;;;;;30.09;35.91;94865.09;5021922;28;20681;-80
2022/05/27 10:25:35;;;;;;;6.00;3.40;;;;;;;30.10;36.57;94870.25;5019191;28;20200;-85
2022/05/27 10:28:05;;;;;;;5.25;2.75;;;;;;;29.32;35.24;94858.63;5021424;28;20201;-73
2022/05/27 10:30:34;;;;;;;4.10;2.90;;;;;;;28.78;37.11;94864.91;5025300;28;20229;-76
2022/05/27 10:33:20;;;;;;;4.80;2.72;;;;;;;29.04;37.31;94865.81;5024375;28;20205;-82
2022/05/27 10:35:47;;;;;;;7.78;3.28;;;;;;;29.26;36.54;94849.22;5020706;28;20208;-86
2022/05/27 10:38:28;;;;;;;6.35;2.90;;;;;;;29.06;36.38;94845.84;5031112;28;20214;-78
2022/05/27 10:41:00;;;;;;;6.00;2.75;;;;;;;28.79;37.15;94844.19;5031146;28;20270;-74
2022/05/27 10:43:42;;;;;;;4.53;2.58;;;;;;;28.30;38.76;94855.38;5022743;28;20643;-78
2022/05/27 10:46:15;;;;;;;5.47;2.85;;;;;;;28.34;38.03;94848.94;5036695;28;20232;-77
2022/05/27 10:48:58;;;;;;;5.72;2.72;;;;;;;29.03;37.00;94836.34;5022643;28;20662;-82
2022/05/27 10:51:45;;;;;;;4.97;2.53;;;;;;;28.88;36.34;94835.94;5024453;28;20770;-80
2022/05/27 10:54:32;;;;;;;7.45;2.92;;;;;;;28.89;36.70;94837.53;5028198;28;20249;-75
2022/05/27 11:03:29;;;;;;;6.00;2.40;;;;;;;28.40;35.81;94828.47;5032009;28;20223;-71
2022/05/27 11:06:24;;;;;;;7.00;2.50;;;;;;;28.93;35.50;94818.69;5014990;28;20624;-80
2022/05/27 11:09:04;;;;;;;5.85;2.47;;;;;;;28.62;34.68;94811.94;5034214;28;20316;-78
2022/05/27 11:11:38;;;;;;;6.43;3.00;;;;;;;28.57;33.73;94792.97;5035169;28;20661;-79
2022/05/27 11:17:13;;;;;;;4.20;2.40;;;;;;;28.74;35.57;94805.63;5027589;28;20387;-74
2022/05/27 11:20:06;;;;;;;10.20;3.13;;;;;;;28.92;35.13;94803.16;5024211;28;20188;-83
2022/05/27 11:22:37;;;;;;;4.68;2.85;;;;;;;29.23;34.96;94788.75;5028491;28;20244;-85
2022/05/27 11:25:29;;;;;;;4.90;2.33;;;;;;;28.84;35.55;94793.41;5028563;28;20192;-80
2022/05/27 11:28:16;;;;;;;6.05;2.80;;;;;;;28.82;34.51;94792.31;5025223;28;20196;-76
2022/05/27 11:30:57;;;;;;;3.78;2.63;;;;;;;29.35;35.49;94779.59;5015013;28;20211;-81
2022/05/27 11:33:39;;;;;;;5.60;2.50;;;;;;;28.86;34.60;94762.31;5029997;28;20197;-79
2022/05/27 11:36:20;;;;;;;5.47;2.72;;;;;;;28.94;35.04;94758.88;5034753;28;20208;-77
2022/05/27 11:39:13;;;;;;;5.78;2.45;;;;;;;29.57;35.28;94752.59;5021389;28;20220;-82
2022/05/27 11:41:51;;;;;;;6.82;2.88;;;;;;;29.08;36.05;94757.69;5034436;28;20204;-81
2022/05/27 11:44:29;;;;;;;6.95;3.10;;;;;;;29.38;35.80;94762.00;5045589;28;20219;-79
2022/05/27 11:47:21;;;;;;;9.35;3.08;;;;;;;29.94;36.97;94736.22;5020619;28;20235;-85
2022/05/27 11:50:06;;;;;;;6.65;2.70;;;;;;;30.15;33.78;94746.72;5029420;28;20221;-76
2022/05/27 11:52:44;;;;;;;4.53;2.67;;;;;;;30.63;33.25;94736.25;5027166;28;20298;-80
2022/05/27 11:55:48;;;;;;;7.32;2.42;;;;;;;30.52;33.91;94730.25;5021999;28;20351;-81
2022/05/27 11:58:20;;;;;;;8.18;2.95;;;;;;;29.94;34.60;94723.03;5033562;28;20227;-79
2022/05/27 12:00:53;;;;;;;7.97;3.20;;;;;;;29.76;35.70;94734.03;5033537;28;20196;-79
2022/05/27 12:03:29;;;;;;;7.60;3.08;;;;;;;29.22;34.55;94720.19;5033060;28;20193;-81
2022/05/27 12:06:04;;;;;;;6.40;2.97;;;;;;;29.19;36.13;94709.91;5032808;28;20207;-79
2022/05/27 12:08:38;;;;;;;6.05;3.00;;;;;;;28.94;37.40;94728.19;5033566;28;20249;-84
2022/05/27 12:11:11;;;;;;;8.25;3.15;;;;;;;29.37;35.39;94715.72;5020666;28;20539;-85
2022/05/27 12:13:42;;;;;;;5.20;2.95;;;;;;;29.74;35.44;94705.78;5020828;28;20194;-78
2022/05/27 12:16:14;;;;;;;5.57;2.85;;;;;;;29.55;35.49;94699.19;5033325;28;20682;-81
2022/05/27 12:18:45;;;;;;;5.72;2.75;;;;;;;29.43;35.56;94696.41;5020575;28;20193;-82
2022/05/27 12:21:17;;;;;;;7.07;2.85;;;;;;;29.51;36.02;94698.56;5024327;28;20612;-87
2022/05/27 12:23:51;;;;;;;8.93;3.33;;;;;;;29.69;35.32;94695.16;5026916;28;20193;-79
2022/05/27 12:26:22;;;;;;;6.80;3.05;;;;;;;29.77;34.81;94687.34;5024525;28;20590;-75